Time;durP1;ratioP1;P1;durP2;ratioP2;P2;SDS_P1;SDS_P2;PMS_P1;PMS_P2;Temp;Humidity;BMP_temperature;BMP_pressure;BME280_temperature;BME280_humidity;BME280_pressure;Samples;Min_cycle;Max_cycle;Signal;HPM_P1;HPM_P2
2023/05/28 04:22:33;;;;;;;7.15;3.88;;;;;;;11.53;88.28;100367.84;5109903;27;20327;-70
2023/05/28 04:24:59;;;;;;;4.57;3.05;;;;;;;11.58;87.98;100366.31;5108615;28;20058;-70
2023/05/28 04:27:25;;;;;;;5.00;3.63;;;;;;;11.62;88.25;100369.47;5108469;28;20488;-71
2023/05/28 04:29:52;;;;;;;5.32;2.80;;;;;;;11.62;88.46;100369.47;5108177;28;20036;-71
2023/05/28 04:32:17;;;;;;;7.22;2.97;;;;;;;11.67;88.14;100373.28;5108415;28;20484;-70
2023/05/28 04:34:43;;;;;;;6.28;3.40;;;;;;;11.73;87.85;100371.72;5109503;28;20089;-70
2023/05/28 04:37:10;;;;;;;4.88;3.03;;;;;;;11.74;87.82;100376.06;5108219;28;20040;-70
2023/05/28 04:39:37;;;;;;;4.63;2.88;;;;;;;11.81;87.67;100378.88;5109418;28;20046;-70
2023/05/28 04:42:03;;;;;;;4.70;2.97;;;;;;;11.84;87.56;100383.84;5109506;28;20515;-70
2023/05/28 04:44:32;;;;;;;6.68;3.35;;;;;;;11.85;87.70;100385.50;5108156;28;20040;-70
2023/05/28 04:46:59;;;;;;;6.22;2.75;;;;;;;11.91;87.80;100387.47;5108135;28;20032;-70
2023/05/28 04:49:25;;;;;;;6.88;3.13;;;;;;;11.91;88.03;100390.97;5107918;28;20036;-71
2023/05/28 04:51:52;;;;;;;5.07;3.17;;;;;;;12.00;87.57;100389.09;5108068;28;20023;-70
2023/05/28 04:54:17;;;;;;;5.75;3.17;;;;;;;12.04;87.29;100384.19;5109342;28;20072;-70
2023/05/28 04:56:43;;;;;;;5.53;2.80;;;;;;;12.09;86.98;100382.66;5108223;28;20126;-70
2023/05/28 04:59:09;;;;;;;4.07;2.55;;;;;;;12.08;87.51;100383.66;5107460;28;20028;-70
2023/05/28 05:01:39;;;;;;;5.82;2.67;;;;;;;12.12;86.96;100384.94;5107825;28;20035;-71
2023/05/28 05:04:06;;;;;;;5.72;3.38;;;;;;;12.16;86.75;100388.09;5107848;28;20085;-71
2023/05/28 05:06:32;;;;;;;6.93;2.97;;;;;;;12.18;86.77;100386.91;5107749;28;20028;-70
2023/05/28 05:08:59;;;;;;;5.32;2.90;;;;;;;12.19;86.81;100390.41;5108415;28;20039;-70
2023/05/28 05:11:26;;;;;;;4.65;2.63;;;;;;;12.28;86.78;100383.16;5107643;28;20404;-70
2023/05/28 05:13:52;;;;;;;6.20;2.55;;;;;;;12.37;85.99;100379.41;5107671;28;20036;-70
2023/05/28 05:16:18;;;;;;;6.80;3.45;;;;;;;12.50;85.11;100380.44;5107519;28;20047;-71
2023/05/28 05:18:44;;;;;;;7.20;2.90;;;;;;;12.59;84.61;100377.69;5108491;28;20481;-70
2023/05/28 05:21:11;;;;;;;5.70;2.85;;;;;;;12.51;84.55;100381.25;5107458;28;20043;-71
2023/05/28 05:23:37;;;;;;;7.30;3.25;;;;;;;12.60;84.14;100385.53;5108804;28;20031;-71
2023/05/28 05:26:03;;;;;;;5.65;3.08;;;;;;;12.62;84.45;100388.84;5107341;28;20032;-70
2023/05/28 05:28:28;;;;;;;6.65;2.78;;;;;;;12.64;84.61;100385.97;5107157;28;20481;-70
2023/05/28 05:30:54;;;;;;;5.72;2.90;;;;;;;12.73;84.35;100393.75;5107218;28;20039;-70
2023/05/28 05:33:21;;;;;;;4.18;2.63;;;;;;;12.76;84.38;100388.00;5091731;28;20078;-69
2023/05/28 05:36:05;;;;;;;5.10;2.50;;;;;;;12.84;84.43;100383.59;5094260;28;20038;-70
2023/05/28 05:38:41;;;;;;;6.80;3.13;;;;;;;12.88;84.31;100390.22;5093292;28;20033;-70
2023/05/28 05:41:29;;;;;;;4.78;2.28;;;;;;;12.98;83.79;100383.59;5093908;28;20385;-70
2023/05/28 05:44:11;;;;;;;5.40;3.25;;;;;;;13.09;83.21;100384.13;5093202;28;20035;-69
2023/05/28 05:46:36;;;;;;;4.47;2.53;;;;;;;13.15;82.89;100389.56;5090424;28;20185;-70
2023/05/28 05:49:02;;;;;;;4.43;2.70;;;;;;;13.23;82.41;100384.13;5093015;28;20024;-70
2023/05/28 05:51:27;;;;;;;4.80;2.65;;;;;;;13.29;82.30;100390.59;5094473;28;20047;-70
2023/05/28 05:53:53;;;;;;;3.22;2.00;;;;;;;13.42;81.96;100384.56;5093331;28;20040;-69
2023/05/28 05:56:18;;;;;;;5.90;2.53;;;;;;;13.50;81.29;100385.28;5090096;28;20489;-62
2023/05/28 05:58:43;;;;;;;5.78;2.33;;;;;;;13.65;81.59;100379.06;5072704;28;20047;-60
2023/05/28 06:01:16;;;;;;;7.00;2.80;;;;;;;13.58;79.68;100379.00;5079872;28;20032;-59
2023/05/28 06:03:41;;;;;;;5.30;3.10;;;;;;;13.77;78.58;100385.59;5076950;28;20438;-56
2023/05/28 06:06:30;;;;;;;4.38;2.35;;;;;;;13.80;77.45;100391.38;5073954;28;20051;-54
2023/05/28 06:09:34;;;;;;;6.22;2.67;;;;;;;13.93;77.97;100393.34;5051393;28;20111;-57
2023/05/28 06:12:18;;;;;;;3.03;1.73;;;;;;;13.97;77.16;100396.47;5034911;28;20493;-55
2023/05/28 06:14:44;;;;;;;5.30;2.15;;;;;;;14.08;76.34;100385.22;5064703;28;20148;-57
2023/05/28 06:17:10;;;;;;;6.40;2.85;;;;;;;14.11;76.68;100384.88;5072581;28;20028;-62
2023/05/28 06:19:36;;;;;;;5.10;2.38;;;;;;;14.17;77.56;100384.09;5072357;28;20037;-61
2023/05/28 06:22:03;;;;;;;3.88;2.08;;;;;;;14.22;75.49;100386.19;5073777;28;20039;-62
2023/05/28 06:24:28;;;;;;;5.43;2.35;;;;;;;14.31;75.48;100385.84;5072381;28;20109;-62
2023/05/28 06:26:55;;;;;;;4.93;2.55;;;;;;;14.34;75.73;100384.63;5072411;28;20575;-63
2023/05/28 06:29:22;;;;;;;5.00;2.30;;;;;;;14.42;74.97;100381.00;5072063;28;20024;-61
2023/05/28 06:31:47;;;;;;;4.50;2.10;;;;;;;14.43;74.54;100377.28;5073587;28;20032;-62
2023/05/28 06:34:14;;;;;;;6.47;2.55;;;;;;;14.46;74.82;100376.88;5072335;28;20119;-61
2023/05/28 06:36:39;;;;;;;4.53;1.85;;;;;;;14.53;73.69;100380.47;5073651;28;20604;-62
2023/05/28 06:39:05;;;;;;;4.93;2.28;;;;;;;14.64;73.24;100394.16;5071871;28;20040;-62
2023/05/28 06:41:31;;;;;;;3.35;2.20;;;;;;;14.73;72.96;100394.81;5072447;28;20036;-62
2023/05/28 06:43:57;;;;;;;4.28;2.25;;;;;;;14.80;73.56;100386.81;5071222;28;20044;-62
2023/05/28 06:46:32;;;;;;;3.92;2.25;;;;;;;14.90;72.81;100390.81;5072038;28;20036;-62
2023/05/28 06:48:58;;;;;;;4.68;2.63;;;;;;;15.00;70.20;100393.16;5071773;28;20087;-60
2023/05/28 06:51:23;;;;;;;8.70;4.63;;;;;;;15.02;69.78;100387.59;5073112;28;20029;-62
2023/05/28 06:53:49;;;;;;;5.13;2.90;;;;;;;15.08;68.46;100386.78;5073249;28;20040;-61
2023/05/28 06:56:17;;;;;;;6.00;2.60;;;;;;;15.17;69.82;100391.78;5071743;28;20032;-62
2023/05/28 06:59:21;;;;;;;5.03;2.63;;;;;;;15.33;71.27;100393.31;5030683;28;20084;-62
2023/05/28 07:02:05;;;;;;;5.55;2.30;;;;;;;15.35;67.51;100396.59;5049545;28;20103;-60
2023/05/28 07:04:49;;;;;;;4.90;2.28;;;;;;;15.44;67.32;100399.94;5068878;28;20392;-62
2023/05/28 07:07:18;;;;;;;4.93;2.47;;;;;;;15.53;66.89;100400.59;5091925;28;20117;-62
2023/05/28 07:09:44;;;;;;;3.47;2.38;;;;;;;15.43;66.23;100396.41;5091533;28;20178;-62
2023/05/28 07:12:09;;;;;;;5.28;2.15;;;;;;;15.61;67.33;100403.09;5099820;28;20047;-61
2023/05/28 07:14:38;;;;;;;6.47;3.30;;;;;;;15.78;67.06;100403.56;5099504;28;20131;-63
2023/05/28 07:17:04;;;;;;;5.32;2.70;;;;;;;15.86;66.46;100401.53;5107530;28;20180;-61
2023/05/28 07:19:31;;;;;;;6.53;3.65;;;;;;;15.94;65.48;100404.03;5111257;28;20568;-63
2023/05/28 07:21:58;;;;;;;6.57;2.58;;;;;;;16.06;64.08;100404.25;5108318;28;20042;-62
2023/05/28 07:24:23;;;;;;;5.95;2.70;;;;;;;16.09;63.85;100411.88;5074824;28;20539;-62
2023/05/28 07:26:49;;;;;;;4.63;2.55;;;;;;;16.29;64.45;100418.09;5091435;28;20130;-62
2023/05/28 07:29:18;;;;;;;6.00;2.70;;;;;;;16.28;63.53;100412.94;5091537;28;20574;-62
2023/05/28 07:31:44;;;;;;;7.07;3.47;;;;;;;16.37;65.01;100413.59;5091383;28;20070;-61
2023/05/28 07:34:10;;;;;;;4.72;2.72;;;;;;;16.46;63.49;100413.16;5092361;28;20032;-61
2023/05/28 07:36:37;;;;;;;3.97;2.08;;;;;;;16.61;62.76;100414.78;5111672;28;20118;-61
2023/05/28 07:39:04;;;;;;;4.05;2.40;;;;;;;16.63;62.50;100412.75;5110959;28;20127;-63
2023/05/28 07:41:30;;;;;;;5.80;2.50;;;;;;;16.78;61.69;100410.66;5101755;28;20378;-63
2023/05/28 07:44:09;;;;;;;3.92;2.38;;;;;;;16.92;60.32;100408.78;5089853;28;20694;-62
2023/05/28 07:46:36;;;;;;;2.85;2.15;;;;;;;16.87;59.00;100408.56;5073338;28;20055;-63
2023/05/28 07:49:05;;;;;;;5.63;2.55;;;;;;;17.05;59.41;100414.13;5089772;28;20036;-62
2023/05/28 07:51:40;;;;;;;3.08;2.25;;;;;;;17.26;58.83;100411.16;5090844;28;20043;-63
2023/05/28 07:54:10;;;;;;;2.85;2.00;;;;;;;17.34;57.61;100404.69;5091089;28;20043;-62
2023/05/28 07:56:38;;;;;;;5.65;2.78;;;;;;;17.43;59.24;100408.00;5090005;28;20516;-63
2023/05/28 07:59:05;;;;;;;4.82;2.30;;;;;;;17.49;57.71;100407.13;5090681;28;20032;-62
2023/05/28 08:01:31;;;;;;;3.10;2.30;;;;;;;17.44;58.29;100409.63;5091108;28;20066;-61
2023/05/28 08:03:56;;;;;;;6.70;2.53;;;;;;;17.59;58.30;100405.59;5091112;28;20040;-63
2023/05/28 08:06:31;;;;;;;5.53;2.80;;;;;;;17.70;58.48;100404.13;5090869;28;20142;-62
2023/05/28 08:08:58;;;;;;;7.15;2.55;;;;;;;17.93;57.57;100406.28;5090670;28;20040;-62
2023/05/28 08:11:25;;;;;;;4.93;2.33;;;;;;;17.95;57.05;100401.50;5091144;28;20039;-62
2023/05/28 08:13:51;;;;;;;4.68;2.33;;;;;;;18.16;57.69;100401.13;5090865;28;20082;-62
2023/05/28 08:16:17;;;;;;;4.93;2.33;;;;;;;18.34;57.22;100400.38;5090754;28;20043;-62
2023/05/28 08:19:03;;;;;;;4.15;2.25;;;;;;;18.34;56.32;100396.84;5070329;28;20498;-62
2023/05/28 08:21:29;;;;;;;5.68;3.00;;;;;;;18.48;55.40;100395.69;5090741;28;20052;-62
2023/05/28 08:23:55;;;;;;;4.30;2.85;;;;;;;18.62;55.45;100397.22;5091967;28;20508;-61
2023/05/28 08:26:21;;;;;;;4.13;2.30;;;;;;;18.74;55.26;100393.81;5091995;28;20067;-62
2023/05/28 08:28:47;;;;;;;5.35;2.88;;;;;;;18.92;55.32;100396.53;5090399;28;20032;-62
2023/05/28 08:31:12;;;;;;;6.60;2.90;;;;;;;19.06;53.72;100389.94;5091891;28;20039;-62
2023/05/28 08:34:16;;;;;;;5.40;2.47;;;;;;;18.96;52.61;100386.94;5086203;28;20047;-62
2023/05/28 08:36:43;;;;;;;2.92;1.85;;;;;;;19.10;53.59;100382.19;5090631;28;20036;-61
2023/05/28 08:39:13;;;;;;;4.97;2.70;;;;;;;19.08;53.11;100377.03;5090214;28;20047;-62
2023/05/28 08:41:42;;;;;;;4.47;2.63;;;;;;;19.36;54.07;100368.38;5090566;28;20516;-62
2023/05/28 08:44:09;;;;;;;4.18;2.00;;;;;;;19.65;53.10;100374.88;5090551;28;20039;-62
2023/05/28 08:46:36;;;;;;;3.03;2.30;;;;;;;19.87;50.56;100374.34;5090465;28;20523;-62
2023/05/28 08:49:20;;;;;;;4.60;2.47;;;;;;;19.98;50.46;100370.88;5091844;28;20042;-61
2023/05/28 08:51:52;;;;;;;4.82;2.88;;;;;;;20.17;51.03;100368.91;5090577;28;20040;-60
2023/05/28 08:54:21;;;;;;;4.38;2.60;;;;;;;20.21;51.10;100364.66;5090531;28;20400;-62
2023/05/28 08:56:46;;;;;;;5.47;2.63;;;;;;;20.51;50.97;100368.13;5090387;28;20028;-61
2023/05/28 08:59:13;;;;;;;3.50;2.13;;;;;;;20.78;50.42;100354.91;5090109;28;20493;-62
2023/05/28 09:01:39;;;;;;;6.87;2.67;;;;;;;20.86;48.78;100353.72;5090458;28;20062;-62
2023/05/28 09:04:07;;;;;;;2.65;2.20;;;;;;;21.18;47.40;100351.41;5090327;28;20552;-62
2023/05/28 09:06:39;;;;;;;3.88;2.35;;;;;;;20.86;47.53;100346.44;5090311;28;20040;-61
2023/05/28 09:09:07;;;;;;;6.90;2.55;;;;;;;21.02;47.69;100347.59;5093308;28;20032;-62
2023/05/28 09:11:44;;;;;;;10.55;2.75;;;;;;;21.30;47.56;100338.69;5094323;28;20043;-59
2023/05/28 09:14:11;;;;;;;6.55;2.65;;;;;;;21.29;46.84;100344.34;5094088;28;20040;-62
2023/05/28 09:16:43;;;;;;;4.30;2.53;;;;;;;21.29;46.13;100339.75;5093994;28;20027;-61
2023/05/28 09:19:15;;;;;;;3.63;2.17;;;;;;;21.35;46.70;100341.50;5093741;28;20043;-61
2023/05/28 09:21:55;;;;;;;5.43;2.63;;;;;;;21.48;46.32;100344.97;5093874;28;20028;-61
2023/05/28 09:24:26;;;;;;;4.57;2.50;;;;;;;21.76;46.24;100339.53;5093928;28;20040;-61
2023/05/28 09:27:12;;;;;;;3.97;2.40;;;;;;;22.21;46.77;100339.50;5094852;28;20130;-61
2023/05/28 09:29:39;;;;;;;4.65;2.15;;;;;;;22.31;45.20;100341.56;5093578;28;20085;-61
2023/05/28 09:32:04;;;;;;;4.20;2.08;;;;;;;22.53;44.62;100336.16;5094790;28;20039;-61
2023/05/28 09:34:31;;;;;;;3.78;2.30;;;;;;;22.58;43.96;100332.72;5095041;28;20520;-61
2023/05/28 09:37:04;;;;;;;4.27;2.33;;;;;;;22.69;44.25;100321.75;5095051;28;20445;-60
2023/05/28 09:39:30;;;;;;;4.47;2.45;;;;;;;23.06;43.38;100329.28;5094552;28;20738;-61
2023/05/28 09:42:03;;;;;;;6.57;2.50;;;;;;;23.29;43.43;100333.63;5094828;28;20036;-61
2023/05/28 09:44:32;;;;;;;4.15;2.60;;;;;;;23.32;42.46;100326.88;5094941;28;20039;-61
2023/05/28 09:46:58;;;;;;;3.92;2.25;;;;;;;23.69;42.07;100332.44;5094658;28;20043;-61
2023/05/28 09:49:27;;;;;;;4.35;2.28;;;;;;;23.60;41.82;100326.59;5094466;28;20040;-61
2023/05/28 09:51:56;;;;;;;5.88;2.58;;;;;;;23.44;41.46;100331.06;5094569;28;20035;-62
2023/05/28 09:54:28;;;;;;;6.63;2.67;;;;;;;23.74;41.97;100332.50;5094741;28;20039;-62
2023/05/28 09:56:57;;;;;;;5.78;2.85;;;;;;;23.68;41.24;100320.75;5094477;28;20085;-63
2023/05/28 09:59:25;;;;;;;5.90;3.28;;;;;;;24.14;41.07;100328.47;5094292;28;20039;-62
2023/05/28 10:02:01;;;;;;;8.00;2.85;;;;;;;23.72;41.05;100326.47;5094505;28;20088;-62
2023/05/28 10:04:35;;;;;;;6.47;2.30;;;;;;;24.17;39.88;100317.06;5094415;28;20043;-62
2023/05/28 10:07:04;;;;;;;5.57;2.45;;;;;;;24.33;39.85;100324.25;5094371;28;20032;-62
2023/05/28 10:09:32;;;;;;;4.18;2.33;;;;;;;24.54;40.02;100322.50;5094043;28;20115;-62
2023/05/28 10:12:20;;;;;;;4.47;2.42;;;;;;;24.99;38.51;100318.38;5094191;28;20487;-63
2023/05/28 10:14:48;;;;;;;5.10;2.33;;;;;;;25.32;38.34;100317.13;5094306;28;20036;-62
2023/05/28 10:17:14;;;;;;;7.15;2.75;;;;;;;25.54;37.53;100308.72;5094166;28;20246;-62
2023/05/28 10:19:40;;;;;;;5.03;2.50;;;;;;;25.92;36.17;100318.31;5093735;28;20541;-62
2023/05/28 10:22:07;;;;;;;4.63;2.70;;;;;;;26.10;36.59;100312.31;5094045;28;20396;-62
2023/05/28 10:24:33;;;;;;;4.75;2.55;;;;;;;26.16;35.78;100313.94;5094009;28;20181;-62
2023/05/28 10:26:59;;;;;;;4.13;2.37;;;;;;;26.45;34.59;100308.72;5094025;28;20450;-62
2023/05/28 10:29:25;;;;;;;3.22;2.08;;;;;;;26.53;34.85;100310.06;5093612;28;20043;-61
2023/05/28 10:32:00;;;;;;;5.63;2.30;;;;;;;26.68;34.64;100310.03;5093851;28;20125;-62
2023/05/28 10:34:33;;;;;;;4.60;2.00;;;;;;;26.84;33.43;100308.06;5093735;28;20392;-62
2023/05/28 10:37:03;;;;;;;4.05;2.53;;;;;;;26.95;34.71;100308.84;5093775;28;20036;-63
2023/05/28 10:39:39;;;;;;;5.20;2.22;;;;;;;27.29;34.45;100306.22;5093424;28;20067;-61
2023/05/28 10:42:06;;;;;;;2.97;2.33;;;;;;;27.47;33.50;100296.56;5093656;28;20039;-60
2023/05/28 10:44:59;;;;;;;4.60;2.22;;;;;;;27.47;34.02;100297.38;5093765;28;20054;-61
2023/05/28 10:47:38;;;;;;;4.75;2.60;;;;;;;27.51;31.62;100300.34;5093534;28;20078;-62
2023/05/28 10:50:15;;;;;;;4.07;2.45;;;;;;;27.27;32.00;100292.03;5093278;28;20096;-62
2023/05/28 10:52:41;;;;;;;4.43;2.10;;;;;;;27.91;31.84;100298.41;5093526;28;20126;-62
2023/05/28 10:55:09;;;;;;;4.72;2.33;;;;;;;27.92;31.40;100300.06;5093444;28;20059;-62
2023/05/28 10:57:47;;;;;;;6.13;3.17;;;;;;;28.19;30.97;100296.81;5093510;28;20096;-62
2023/05/28 11:00:23;;;;;;;4.70;2.08;;;;;;;28.50;30.99;100298.16;5093078;28;20036;-62
2023/05/28 11:02:51;;;;;;;5.15;2.58;;;;;;;28.83;30.86;100290.09;5093421;28;20040;-62
2023/05/28 11:05:23;;;;;;;4.82;2.83;;;;;;;29.17;29.66;100279.78;5093124;28;20126;-63
2023/05/28 11:07:48;;;;;;;3.35;2.22;;;;;;;29.00;29.41;100276.72;5093044;28;20038;-62
2023/05/28 11:10:17;;;;;;;5.55;2.42;;;;;;;29.28;30.14;100290.59;5092823;28;20048;-62
2023/05/28 11:12:45;;;;;;;4.80;2.80;;;;;;;29.07;30.29;100285.38;5093088;28;20206;-63
2023/05/28 11:15:12;;;;;;;7.20;2.05;;;;;;;28.55;31.07;100287.09;5093043;28;20542;-62
2023/05/28 11:17:42;;;;;;;4.85;2.47;;;;;;;29.23;29.30;100282.44;5093096;28;20512;-62
2023/05/28 11:20:24;;;;;;;3.47;2.08;;;;;;;29.06;30.79;100275.53;5092545;28;20040;-63
2023/05/28 11:22:50;;;;;;;3.15;2.10;;;;;;;28.76;29.33;100263.03;5092840;28;20168;-62
2023/05/28 11:25:16;;;;;;;3.83;2.05;;;;;;;29.41;29.47;100279.72;5092960;28;20043;-61
2023/05/28 11:27:42;;;;;;;4.90;2.08;;;;;;;29.88;29.29;100283.38;5092809;28;20036;-61
2023/05/28 11:30:18;;;;;;;3.40;2.30;;;;;;;29.10;30.02;100276.59;5092016;28;20040;-62
2023/05/28 11:32:45;;;;;;;3.17;2.13;;;;;;;29.71;29.39;100275.69;5092641;28;20032;-62
2023/05/28 11:35:12;;;;;;;5.22;2.30;;;;;;;29.55;29.34;100273.50;5092651;28;20042;-62
2023/05/28 11:37:39;;;;;;;4.43;2.05;;;;;;;29.90;28.80;100272.88;5092653;28;20036;-62
2023/05/28 11:40:05;;;;;;;;;;;;;;;29.80;29.00;100270.34;5092728;28;20036;-63
2023/05/28 11:42:31;;;;;;;4.05;2.42;;;;;;;30.61;27.74;100283.69;5092627;28;19951;-63
2023/05/28 11:44:57;;;;;;;4.40;1.90;;;;;;;30.42;28.31;100278.28;5092663;28;20047;-62
2023/05/28 11:47:24;;;;;;;4.83;2.40;;;;;;;30.57;27.61;100266.97;5092427;28;20028;-63
2023/05/28 11:49:50;;;;;;;;;;;;;;;30.33;28.43;100271.88;5092582;28;20040;-62
2023/05/28 11:52:16;;;;;;;3.17;2.10;;;;;;;30.37;27.95;100276.44;5090264;28;19915;-62
2023/05/28 11:54:45;;;;;;;4.18;2.38;;;;;;;30.44;28.72;100270.53;5082872;28;20036;-61
2023/05/28 11:57:11;;;;;;;4.32;2.20;;;;;;;30.20;27.86;100263.31;5081714;28;20042;-61
2023/05/28 11:59:36;;;;;;;4.00;2.05;;;;;;;30.86;27.22;100271.38;5081713;28;20032;-61
2023/05/28 12:02:13;;;;;;;4.13;2.10;;;;;;;30.73;27.90;100273.84;5081182;28;20040;-61
2023/05/28 12:04:39;;;;;;;3.70;2.67;;;;;;;31.23;27.02;100273.00;5082243;28;20035;-63
2023/05/28 12:07:05;;;;;;;3.00;1.90;;;;;;;31.30;26.55;100271.50;5080511;28;20028;-61
2023/05/28 12:09:32;;;;;;;4.17;2.43;;;;;;;30.25;27.34;100256.91;5082176;28;20035;-60
2023/05/28 12:12:10;;;;;;;2.70;1.90;;;;;;;31.18;27.06;100259.41;5080795;28;20039;-61
2023/05/28 12:14:35;;;;;;;3.92;1.98;;;;;;;30.52;27.10;100253.38;5081504;28;20067;-61
2023/05/28 12:17:10;;;;;;;4.78;1.80;;;;;;;30.83;27.05;100253.53;5081083;28;20048;-61
2023/05/28 12:19:36;;;;;;;4.05;2.22;;;;;;;31.37;27.54;100259.25;5081094;28;20037;-62
2023/05/28 12:22:13;;;;;;;4.25;2.63;;;;;;;31.43;27.79;100250.56;5080892;28;20028;-62
2023/05/28 12:24:39;;;;;;;4.65;1.90;;;;;;;31.16;26.91;100251.44;5081993;28;20039;-62
2023/05/28 12:27:05;;;;;;;4.40;2.57;;;;;;;31.45;26.52;100245.56;5080447;28;20029;-62
2023/05/28 12:29:32;;;;;;;4.90;2.25;;;;;;;31.56;26.76;100240.59;5082243;28;20035;-62
2023/05/28 12:31:59;;;;;;;4.05;2.10;;;;;;;30.88;26.56;100233.38;5081714;28;20111;-62
2023/05/28 12:34:25;;;;;;;4.72;3.38;;;;;;;30.77;26.79;100221.78;5080595;28;20044;-62
2023/05/28 12:36:50;;;;;;;3.60;2.60;;;;;;;30.73;26.77;100237.28;5081176;28;20554;-62
2023/05/28 12:39:16;;;;;;;4.90;2.70;;;;;;;31.25;26.80;100237.81;5081192;28;20382;-62
2023/05/28 12:41:42;;;;;;;2.37;1.80;;;;;;;31.25;26.82;100238.63;5080736;28;20447;-62
2023/05/28 12:44:07;;;;;;;4.57;2.20;;;;;;;31.70;25.94;100233.09;5085907;28;20038;-61
2023/05/28 12:46:33;;;;;;;4.73;2.00;;;;;;;31.78;25.50;100234.28;5084809;28;20694;-61
2023/05/28 12:48:58;;;;;;;5.00;2.13;;;;;;;32.25;25.53;100227.25;5085032;28;20035;-62
2023/05/28 12:51:23;;;;;;;3.30;1.90;;;;;;;31.81;25.10;100225.41;5086218;28;20470;-62
2023/05/28 12:53:49;;;;;;;5.10;2.57;;;;;;;32.01;26.27;100216.59;5066470;28;20024;-62
2023/05/28 12:56:14;;;;;;;2.77;1.97;;;;;;;31.83;25.39;100225.94;5085404;28;20048;-63
2023/05/28 12:58:40;;;;;;;4.10;2.40;;;;;;;31.78;24.42;100213.09;5084291;28;20115;-63
2023/05/28 13:01:05;;;;;;;4.83;2.00;;;;;;;32.47;24.11;100218.09;5084092;28;20029;-62
2023/05/28 13:03:32;;;;;;;6.40;2.27;;;;;;;31.65;24.53;100218.66;5085993;28;20036;-63
2023/05/28 13:05:58;;;;;;;3.00;2.00;;;;;;;31.03;25.69;100222.03;5085111;28;20029;-63
2023/05/28 13:08:23;;;;;;;2.53;1.90;;;;;;;31.74;24.84;100222.25;5084042;28;20038;-63
2023/05/28 13:10:49;;;;;;;3.53;2.07;;;;;;;31.23;26.00;100221.59;5085663;28;20294;-62
2023/05/28 13:13:14;;;;;;;4.23;2.03;;;;;;;31.24;25.62;100222.44;5084719;28;20040;-62
2023/05/28 13:15:40;;;;;;;3.23;2.00;;;;;;;30.83;25.39;100217.81;5084622;28;20051;-61
2023/05/28 13:18:05;;;;;;;4.55;2.15;;;;;;;30.70;26.19;100221.41;5085800;28;20024;-63
2023/05/28 13:20:32;;;;;;;3.77;1.97;;;;;;;29.92;26.68;100207.50;5083456;28;20040;-63
2023/05/28 13:22:58;;;;;;;3.60;2.20;;;;;;;29.37;27.39;100209.28;5083635;28;20028;-63
2023/05/28 13:25:23;;;;;;;4.67;2.17;;;;;;;29.51;27.60;100204.66;5085606;28;20454;-63
2023/05/28 13:27:50;;;;;;;3.95;2.17;;;;;;;29.35;28.45;100214.25;5074932;28;20032;-63
2023/05/28 13:30:16;;;;;;;4.57;2.65;;;;;;;29.56;28.12;100204.59;5074525;28;20047;-61
2023/05/28 13:32:41;;;;;;;2.90;1.90;;;;;;;28.62;28.18;100199.91;5074803;28;20066;-62
2023/05/28 13:35:09;;;;;;;4.95;2.30;;;;;;;27.85;28.64;100199.97;5074787;28;20044;-62
2023/05/28 13:37:35;;;;;;;2.92;2.00;;;;;;;27.90;29.74;100195.50;5074733;28;20127;-62
2023/05/28 13:40:00;;;;;;;2.92;2.00;;;;;;;27.93;29.06;100200.44;5073016;28;20060;-62
2023/05/28 13:42:27;;;;;;;3.50;2.35;;;;;;;27.28;29.71;100206.97;5074667;28;20550;-61
2023/05/28 13:44:53;;;;;;;4.78;2.10;;;;;;;27.46;29.66;100196.47;5073340;28;20040;-61
2023/05/28 13:47:19;;;;;;;2.55;1.88;;;;;;;27.40;28.85;100198.41;5074525;28;20401;-61
2023/05/28 13:49:44;;;;;;;3.35;2.00;;;;;;;27.51;29.48;100194.47;5074152;28;20044;-61
2023/05/28 13:52:10;;;;;;;2.90;1.90;;;;;;;27.39;29.08;100185.03;5074423;28;20041;-62
2023/05/28 13:54:35;;;;;;;3.70;2.05;;;;;;;26.98;30.11;100193.47;5073612;28;20028;-62
2023/05/28 13:57:01;;;;;;;4.57;2.30;;;;;;;27.31;29.98;100190.00;5074316;28;20044;-62
2023/05/28 13:59:27;;;;;;;4.82;2.35;;;;;;;26.81;29.99;100179.41;5073908;28;20516;-62
2023/05/28 14:01:52;;;;;;;3.53;2.10;;;;;;;27.23;30.47;100179.66;5072912;28;20033;-62
2023/05/28 14:04:17;;;;;;;3.88;2.05;;;;;;;26.91;31.38;100171.94;5074217;28;20040;-62
2023/05/28 14:06:43;;;;;;;4.28;2.60;;;;;;;27.26;29.72;100176.38;5074131;28;20040;-61
2023/05/28 14:09:08;;;;;;;3.60;2.20;;;;;;;26.64;29.97;100172.38;5073738;28;20189;-62
2023/05/28 14:11:34;;;;;;;4.13;2.00;;;;;;;26.55;29.92;100171.34;5086115;28;20040;-62
2023/05/28 14:13:59;;;;;;;4.38;2.53;;;;;;;26.65;29.56;100176.72;5094361;28;20035;-62
2023/05/28 14:16:24;;;;;;;4.82;2.70;;;;;;;26.65;29.34;100167.72;5092943;28;20040;-62
2023/05/28 14:18:50;;;;;;;4.70;2.08;;;;;;;26.88;28.71;100174.44;5093889;28;20378;-62
2023/05/28 14:21:16;;;;;;;6.43;2.45;;;;;;;26.54;29.35;100169.72;5094118;28;20117;-62
2023/05/28 14:23:41;;;;;;;5.70;1.98;;;;;;;26.42;28.92;100166.50;5093952;28;20420;-62
2023/05/28 14:26:07;;;;;;;5.43;2.70;;;;;;;26.45;28.46;100166.72;5093941;28;20169;-61
2023/05/28 14:28:32;;;;;;;6.13;2.70;;;;;;;26.52;27.82;100167.25;5093620;28;20043;-62
2023/05/28 14:30:57;;;;;;;2.97;1.75;;;;;;;26.52;26.14;100174.63;5093979;28;20040;-61
2023/05/28 14:33:23;;;;;;;5.60;2.28;;;;;;;26.50;26.34;100171.34;5093855;28;20044;-61
2023/05/28 14:35:48;;;;;;;3.50;2.13;;;;;;;26.30;28.11;100147.66;5093846;28;20044;-62
2023/05/28 14:38:14;;;;;;;4.13;2.65;;;;;;;26.62;28.66;100162.84;5093535;28;20048;-60
2023/05/28 14:40:39;;;;;;;3.80;2.35;;;;;;;26.45;28.79;100157.72;5093619;28;20036;-60
2023/05/28 14:43:05;;;;;;;3.65;2.30;;;;;;;26.32;29.06;100161.84;5093760;28;20051;-62
2023/05/28 14:45:30;;;;;;;8.23;2.47;;;;;;;26.43;28.66;100162.66;5093650;28;20052;-62
2023/05/28 14:47:56;;;;;;;4.85;2.30;;;;;;;26.19;29.55;100151.53;5093668;28;20039;-60
2023/05/28 14:50:21;;;;;;;5.38;2.72;;;;;;;26.25;29.38;100155.88;5093258;28;20039;-61
2023/05/28 14:52:47;;;;;;;5.35;2.38;;;;;;;26.20;28.85;100145.78;5093292;28;20040;-62
2023/05/28 14:55:12;;;;;;;5.35;2.78;;;;;;;26.25;29.74;100142.22;5093325;28;20459;-62
2023/05/28 14:57:38;;;;;;;4.53;2.90;;;;;;;26.06;31.19;100142.00;5093498;28;20050;-62
2023/05/28 15:00:06;;;;;;;6.40;2.92;;;;;;;26.16;31.33;100150.19;5092997;28;20039;-62
2023/05/28 15:02:34;;;;;;;4.72;2.90;;;;;;;26.19;30.13;100141.41;5093167;28;20043;-62
2023/05/28 15:04:59;;;;;;;;;;;;;;;26.18;29.59;100144.44;5093034;28;20032;-62
2023/05/28 15:07:25;;;;;;;7.03;3.10;;;;;;;25.88;30.12;100146.16;5093223;28;20296;-61
2023/05/28 15:09:50;;;;;;;4.25;2.50;;;;;;;25.86;30.02;100142.06;5091757;28;20469;-60
2023/05/28 15:12:16;;;;;;;4.63;2.60;;;;;;;25.83;30.30;100132.56;5093070;28;20079;-61
2023/05/28 15:14:41;;;;;;;3.72;2.40;;;;;;;25.93;30.56;100131.69;5092464;28;20027;-61
2023/05/28 15:17:07;;;;;;;4.97;2.60;;;;;;;25.70;30.72;100125.72;5092921;28;20582;-62
2023/05/28 15:19:32;;;;;;;5.07;3.10;;;;;;;25.87;30.59;100130.06;5092642;28;20461;-62
2023/05/28 15:21:57;;;;;;;5.10;2.67;;;;;;;25.82;31.55;100119.16;5092813;28;20174;-62
2023/05/28 15:24:23;;;;;;;6.05;3.00;;;;;;;25.69;32.05;100121.38;5092818;28;20040;-61
2023/05/28 15:26:48;;;;;;;5.20;2.30;;;;;;;25.75;31.95;100126.81;5092638;28;20047;-62
2023/05/28 15:29:15;;;;;;;7.13;3.58;;;;;;;25.73;32.08;100121.66;5092604;28;20040;-62
2023/05/28 15:31:44;;;;;;;7.47;3.58;;;;;;;25.76;31.47;100117.56;5091579;28;20119;-61
2023/05/28 15:34:10;;;;;;;6.85;3.25;;;;;;;25.73;31.48;100110.75;5092710;28;20450;-62
2023/05/28 15:36:36;;;;;;;5.97;3.97;;;;;;;25.76;32.52;100114.84;5092498;28;20058;-62
2023/05/28 15:39:02;;;;;;;4.70;2.90;;;;;;;25.65;32.60;100114.00;5092477;28;20115;-62
2023/05/28 15:41:28;;;;;;;5.78;2.83;;;;;;;25.89;31.25;100114.25;5092634;28;20032;-62
2023/05/28 15:43:53;;;;;;;4.60;2.78;;;;;;;25.62;31.84;100107.19;5092607;28;20113;-63
2023/05/28 15:46:19;;;;;;;4.95;2.70;;;;;;;25.66;33.89;100118.38;5092582;28;20187;-65
2023/05/28 15:48:46;;;;;;;6.15;3.22;;;;;;;25.77;33.82;100111.00;5092208;28;20085;-61
2023/05/28 15:51:12;;;;;;;4.53;2.90;;;;;;;25.63;32.78;100114.28;5092483;28;20051;-61
2023/05/28 15:53:37;;;;;;;4.93;2.80;;;;;;;25.76;31.58;100117.56;5092573;28;20385;-63